createdAt,value
2023-02-22T00:00:34.779Z,1008.62
2023-02-22T00:01:34.790Z,1008.61
2023-02-22T00:02:34.756Z,1008.60
2023-02-22T00:03:34.788Z,1008.59
2023-02-22T00:04:34.734Z,1008.59
2023-02-22T00:05:34.786Z,1008.58
2023-02-22T00:06:34.715Z,1008.58
2023-02-22T00:07:34.755Z,1008.56
2023-02-22T00:08:34.697Z,1008.56
2023-02-22T00:09:34.722Z,1008.56
2023-02-22T00:10:34.675Z,1008.56
2023-02-22T00:11:34.709Z,1008.56
2023-02-22T00:12:34.650Z,1008.56
2023-02-22T00:13:34.663Z,1008.54
2023-02-22T00:14:34.628Z,1008.53
2023-02-22T00:15:34.645Z,1008.52
2023-02-22T00:16:34.643Z,1008.51
2023-02-22T00:17:34.634Z,1008.50
2023-02-22T00:18:34.584Z,1008.49
2023-02-22T00:19:34.602Z,1008.48
2023-02-22T00:20:34.571Z,1008.46
2023-02-22T00:21:34.582Z,1008.45
2023-02-22T00:22:34.548Z,1008.45
2023-02-22T00:23:34.581Z,1008.45
2023-02-22T00:24:34.526Z,1008.44
2023-02-22T00:25:34.569Z,1008.44
2023-02-22T00:26:34.503Z,1008.45
2023-02-22T00:27:34.514Z,1008.45
2023-02-22T00:28:34.480Z,1008.44
2023-02-22T00:29:34.539Z,1008.42
2023-02-22T00:30:34.533Z,1008.42
2023-02-22T00:31:34.484Z,1008.41
2023-02-22T00:32:34.506Z,1008.42
2023-02-22T00:33:34.447Z,1008.42
2023-02-22T00:34:34.450Z,1008.42
2023-02-22T00:35:34.444Z,1008.41
2023-02-22T00:36:34.398Z,1008.40
2023-02-22T00:37:34.416Z,1008.40
2023-02-22T00:38:34.376Z,1008.39
2023-02-22T00:39:34.387Z,1008.38
2023-02-22T00:40:34.354Z,1008.37
2023-02-22T00:41:34.426Z,1008.37
2023-02-22T00:42:34.336Z,1008.37
2023-02-22T00:43:34.350Z,1008.37
2023-02-22T00:44:34.310Z,1008.38
2023-02-22T00:45:34.441Z,1008.37
2023-02-22T00:46:34.322Z,1008.35
2023-02-22T00:47:34.326Z,1008.34
2023-02-22T00:48:34.270Z,1008.32
2023-02-22T00:49:34.288Z,1008.30
2023-02-22T00:50:34.266Z,1008.30
2023-02-22T00:51:34.276Z,1008.27
2023-02-22T00:52:34.228Z,1008.26
2023-02-22T00:53:34.253Z,1008.26
2023-02-22T00:54:34.206Z,1008.26
2023-02-22T00:55:34.224Z,1008.24
2023-02-22T00:56:34.202Z,1008.22
2023-02-22T00:57:34.195Z,1008.20
2023-02-22T00:58:34.168Z,1008.20
2023-02-22T00:59:34.188Z,1008.19
2023-02-22T01:00:34.161Z,1008.17
2023-02-22T01:01:34.224Z,1008.15
2023-02-22T01:02:34.173Z,1008.14
2023-02-22T01:03:34.151Z,1008.14
2023-02-22T01:04:34.100Z,1008.14
2023-02-22T01:05:34.131Z,1008.13
2023-02-22T01:06:34.075Z,1008.12
2023-02-22T01:07:34.094Z,1008.11
2023-02-22T01:08:34.056Z,1008.09
2023-02-22T01:09:34.068Z,1008.08
2023-02-22T01:10:34.039Z,1008.08
2023-02-22T01:11:34.063Z,1008.07
2023-02-22T01:12:34.012Z,1008.06
2023-02-22T01:13:34.039Z,1008.05
2023-02-22T01:14:33.999Z,1008.03
2023-02-22T01:15:34.005Z,1008.03
2023-02-22T01:16:33.992Z,1008.02
2023-02-22T01:17:34.013Z,1008.01
2023-02-22T01:18:33.951Z,1008.00
2023-02-22T01:19:33.961Z,1008.02
2023-02-22T01:20:33.931Z,1008.03
2023-02-22T01:21:33.946Z,1008.02
2023-02-22T01:22:33.921Z,1008.03
2023-02-22T01:23:33.955Z,1008.01
2023-02-22T01:24:33.897Z,1008.01
2023-02-22T01:25:33.902Z,1008.01
2023-02-22T01:26:33.877Z,1008.01
2023-02-22T01:27:33.881Z,1007.99
2023-02-22T01:28:33.932Z,1007.98
2023-02-22T01:29:33.873Z,1007.97
2023-02-22T01:30:34.037Z,1007.97
2023-02-22T01:31:33.879Z,1007.97
2023-02-22T01:32:33.812Z,1007.96
2023-02-22T01:33:33.826Z,1007.94
2023-02-22T01:34:33.794Z,1007.93
2023-02-22T01:35:33.832Z,1007.91
2023-02-22T01:36:33.761Z,1007.90
2023-02-22T01:37:33.768Z,1007.89
2023-02-22T01:38:33.738Z,1007.87
2023-02-22T01:39:33.754Z,1007.85
2023-02-22T01:40:33.731Z,1007.84
2023-02-22T01:41:33.747Z,1007.84
2023-02-22T01:42:33.700Z,1007.83
2023-02-22T01:43:33.709Z,1007.82
2023-02-22T01:44:33.688Z,1007.81
2023-02-22T01:45:33.696Z,1007.79
2023-02-22T01:46:33.699Z,1007.79
2023-02-22T01:47:33.689Z,1007.78
2023-02-22T01:48:33.633Z,1007.77
2023-02-22T01:49:33.662Z,1007.77
2023-02-22T01:50:33.606Z,1007.76
2023-02-22T01:51:33.622Z,1007.75
2023-02-22T01:52:33.586Z,1007.74
2023-02-22T01:53:33.621Z,1007.74
2023-02-22T01:54:33.566Z,1007.73
2023-02-22T01:55:33.586Z,1007.71
2023-02-22T01:56:33.554Z,1007.70
2023-02-22T01:57:33.557Z,1007.68
2023-02-22T01:58:33.529Z,1007.67
2023-02-22T01:59:33.568Z,1007.67
2023-02-22T02:00:33.508Z,1007.67
2023-02-22T02:01:33.514Z,1007.66
2023-02-22T02:02:33.483Z,1007.66
2023-02-22T02:03:33.511Z,1007.67
2023-02-22T02:04:33.459Z,1007.66
2023-02-22T02:05:33.496Z,1007.65
2023-02-22T02:06:33.442Z,1007.65
2023-02-22T02:07:33.456Z,1007.64
2023-02-22T02:08:33.431Z,1007.63
2023-02-22T02:09:33.460Z,1007.63
2023-02-22T02:10:33.398Z,1007.62
2023-02-22T02:11:33.426Z,1007.60
2023-02-22T02:12:33.377Z,1007.59
2023-02-22T02:13:33.388Z,1007.57
2023-02-22T02:14:33.368Z,1007.56
2023-02-22T02:15:33.401Z,1007.56
2023-02-22T02:16:33.356Z,1007.56
2023-02-22T02:17:33.369Z,1007.56
2023-02-22T02:18:33.316Z,1007.55
2023-02-22T02:19:33.324Z,1007.54
2023-02-22T02:20:33.292Z,1007.52
2023-02-22T02:21:33.309Z,1007.50
2023-02-22T02:22:33.274Z,1007.48
2023-02-22T02:23:33.521Z,1007.47
2023-02-22T02:24:33.248Z,1007.47
2023-02-22T02:25:33.268Z,1007.47
2023-02-22T02:26:33.240Z,1007.46
2023-02-22T02:27:33.241Z,1007.45
2023-02-22T02:28:33.212Z,1007.44
2023-02-22T02:29:33.255Z,1007.44
2023-02-22T02:30:33.249Z,1007.44
2023-02-22T02:31:33.201Z,1007.43
2023-02-22T02:32:33.260Z,1007.41
2023-02-22T02:33:33.179Z,1007.40
2023-02-22T02:34:33.151Z,1007.39
2023-02-22T02:35:33.176Z,1007.39
2023-02-22T02:36:33.143Z,1007.37
2023-02-22T02:37:33.144Z,1007.36
2023-02-22T02:38:33.123Z,1007.36
2023-02-22T02:39:33.120Z,1007.34
2023-02-22T02:40:33.125Z,1007.32
2023-02-22T02:41:33.114Z,1007.31
2023-02-22T02:42:33.060Z,1007.29
2023-02-22T02:43:33.093Z,1007.29
2023-02-22T02:44:33.040Z,1007.29
2023-02-22T02:45:33.059Z,1007.28
2023-02-22T02:46:33.050Z,1007.25
2023-02-22T02:47:33.121Z,1007.24
2023-02-22T02:48:32.999Z,1007.23
2023-02-22T02:49:33.016Z,1007.23
2023-02-22T02:50:32.978Z,1007.22
2023-02-22T02:51:33.004Z,1007.20
2023-02-22T02:52:32.959Z,1007.18
2023-02-22T02:53:33.003Z,1007.17
2023-02-22T02:54:32.948Z,1007.17
2023-02-22T02:55:32.947Z,1007.16
2023-02-22T02:56:32.919Z,1007.15
2023-02-22T02:57:32.926Z,1007.15
2023-02-22T02:58:32.904Z,1007.16
2023-02-22T02:59:32.940Z,1007.16
2023-02-22T03:00:32.873Z,1007.16
2023-02-22T03:01:32.955Z,1007.16
2023-02-22T03:02:32.851Z,1007.16
2023-02-22T03:03:32.864Z,1007.17
2023-02-22T03:04:32.831Z,1007.16
2023-02-22T03:05:32.861Z,1007.14
2023-02-22T03:06:32.812Z,1007.13
2023-02-22T03:07:32.896Z,1007.13
2023-02-22T03:08:32.792Z,1007.14
2023-02-22T03:09:32.807Z,1007.14
2023-02-22T03:10:32.788Z,1007.12
2023-02-22T03:11:32.807Z,1007.11
2023-02-22T03:12:32.746Z,1007.10
2023-02-22T03:13:32.768Z,1007.08
2023-02-22T03:14:32.727Z,1007.07
2023-02-22T03:15:32.758Z,1007.04
2023-02-22T03:16:32.755Z,1007.02
2023-02-22T03:17:32.733Z,1007.01
2023-02-22T03:18:32.691Z,1007.00
2023-02-22T03:19:32.705Z,1007.01
2023-02-22T03:20:32.680Z,1007.01
2023-02-22T03:21:32.679Z,1007.01
2023-02-22T03:22:32.645Z,1007.02
2023-02-22T03:23:32.677Z,1007.02
2023-02-22T03:24:32.622Z,1007.01
2023-02-22T03:25:32.643Z,1007.01
2023-02-22T03:26:32.602Z,1007.01
2023-02-22T03:27:32.621Z,1007.02
2023-02-22T03:28:32.584Z,1007.03
2023-02-22T03:29:32.618Z,1007.01
2023-02-22T03:30:32.609Z,1007.00
2023-02-22T03:31:32.635Z,1006.98
2023-02-22T03:32:32.542Z,1006.97
2023-02-22T03:33:32.559Z,1006.96
2023-02-22T03:34:32.525Z,1006.93
2023-02-22T03:35:32.560Z,1006.91
2023-02-22T03:36:32.513Z,1006.91
2023-02-22T03:37:32.511Z,1006.89
2023-02-22T03:38:32.479Z,1006.88
2023-02-22T03:39:32.494Z,1006.88
2023-02-22T03:40:32.468Z,1006.88
2023-02-22T03:41:32.486Z,1006.88
2023-02-22T03:42:32.442Z,1006.87
2023-02-22T03:43:32.458Z,1006.85
2023-02-22T03:44:32.418Z,1006.83
2023-02-22T03:45:32.432Z,1006.83
2023-02-22T03:46:32.479Z,1006.83
2023-02-22T03:47:32.482Z,1006.82
2023-02-22T03:48:32.378Z,1006.81
2023-02-22T03:49:32.400Z,1006.80
2023-02-22T03:50:32.368Z,1006.81
2023-02-22T03:51:32.369Z,1006.82
2023-02-22T03:52:32.344Z,1006.82
2023-02-22T03:53:32.361Z,1006.81
2023-02-22T03:54:32.337Z,1006.82
2023-02-22T03:55:32.327Z,1006.83
2023-02-22T03:56:34.403Z,1006.84
2023-02-22T03:57:32.304Z,1006.83
2023-02-22T03:58:32.270Z,1006.83
2023-02-22T03:59:32.304Z,1006.84
2023-02-22T04:00:32.278Z,1006.85
2023-02-22T04:01:32.242Z,1006.85
2023-02-22T04:02:32.257Z,1006.84
2023-02-22T04:03:32.236Z,1006.83
2023-02-22T04:04:32.258Z,1006.81
2023-02-22T04:05:32.226Z,1006.81
2023-02-22T04:06:32.223Z,1006.80
2023-02-22T04:07:32.205Z,1006.79
2023-02-22T04:08:32.199Z,1006.78
2023-02-22T04:09:32.156Z,1006.78
2023-02-22T04:10:32.171Z,1006.76
2023-02-22T04:11:32.162Z,1006.75
2023-02-22T04:12:32.146Z,1006.73
2023-02-22T04:13:32.111Z,1006.72
2023-02-22T04:14:32.132Z,1006.71
2023-02-22T04:15:32.100Z,1006.71
2023-02-22T04:16:32.103Z,1006.69
2023-02-22T04:17:32.109Z,1006.68
2023-02-22T04:18:32.087Z,1006.66
2023-02-22T04:19:32.055Z,1006.65
2023-02-22T04:20:32.068Z,1006.64
2023-02-22T04:21:32.033Z,1006.63
2023-02-22T04:22:32.044Z,1006.63
2023-02-22T04:23:32.024Z,1006.63
2023-02-22T04:24:32.038Z,1006.62
2023-02-22T04:25:31.999Z,1006.62
2023-02-22T04:26:32.001Z,1006.62
2023-02-22T04:27:31.998Z,1006.63
2023-02-22T04:28:31.960Z,1006.63
2023-02-22T04:29:32.001Z,1006.63
2023-02-22T04:30:32.011Z,1006.62
2023-02-22T04:31:31.988Z,1006.61
2023-02-22T04:32:31.919Z,1006.61
2023-02-22T04:33:31.932Z,1006.60
2023-02-22T04:34:31.895Z,1006.60
2023-02-22T04:35:35.061Z,1006.58
2023-02-22T04:36:31.905Z,1006.59
2023-02-22T04:37:31.889Z,1006.59
2023-02-22T04:38:31.860Z,1006.58
2023-02-22T04:39:31.900Z,1006.57
2023-02-22T04:40:31.852Z,1006.58
2023-02-22T04:41:31.864Z,1006.58
2023-02-22T04:42:31.814Z,1006.58
2023-02-22T04:43:31.822Z,1006.59
2023-02-22T04:44:31.793Z,1006.59
2023-02-22T04:45:31.806Z,1006.60
2023-02-22T04:46:31.858Z,1006.59
2023-02-22T04:47:31.809Z,1006.58
2023-02-22T04:48:31.761Z,1006.57
2023-02-22T04:49:31.763Z,1006.56
2023-02-22T04:50:31.737Z,1006.55
2023-02-22T04:51:31.755Z,1006.54
2023-02-22T04:52:31.711Z,1006.54
2023-02-22T04:53:31.742Z,1006.54
2023-02-22T04:54:31.692Z,1006.55
2023-02-22T04:55:31.701Z,1006.56
2023-02-22T04:56:31.678Z,1006.55
2023-02-22T04:57:31.679Z,1006.54
2023-02-22T04:58:31.652Z,1006.54
2023-02-22T04:59:31.688Z,1006.53
2023-02-22T05:00:31.635Z,1006.53
2023-02-22T05:01:31.645Z,1006.52
2023-02-22T05:02:31.672Z,1006.49
2023-02-22T05:03:31.620Z,1006.49
2023-02-22T05:04:31.678Z,1006.46
2023-02-22T05:05:31.614Z,1006.48
2023-02-22T05:06:31.565Z,1006.47
2023-02-22T05:07:31.573Z,1006.46
2023-02-22T05:08:31.566Z,1006.45
2023-02-22T05:09:31.557Z,1006.45
2023-02-22T05:10:31.525Z,1006.44
2023-02-22T05:11:31.561Z,1006.43
2023-02-22T05:12:31.510Z,1006.42
2023-02-22T05:13:31.525Z,1006.41
2023-02-22T05:14:31.487Z,1006.41
2023-02-22T05:15:31.491Z,1006.39
2023-02-22T05:16:31.982Z,1006.40
2023-02-22T05:17:31.505Z,1006.37
2023-02-22T05:18:31.439Z,1006.38
2023-02-22T05:19:31.452Z,1006.35
2023-02-22T05:20:31.420Z,1006.37
2023-02-22T05:21:31.436Z,1006.36
2023-02-22T05:22:31.399Z,1006.37
2023-02-22T05:23:31.424Z,1006.36
2023-02-22T05:24:31.379Z,1006.36
2023-02-22T05:25:31.394Z,1006.35
2023-02-22T05:26:31.368Z,1006.34
2023-02-22T05:27:31.381Z,1006.35
2023-02-22T05:28:31.339Z,1006.33
2023-02-22T05:29:31.373Z,1006.34
2023-02-22T05:30:31.369Z,1006.33
2023-02-22T05:31:31.429Z,1006.32
2023-02-22T05:32:31.293Z,1006.30
2023-02-22T05:33:31.307Z,1006.30
2023-02-22T05:34:31.279Z,1006.29
2023-02-22T05:35:31.326Z,1006.29
2023-02-22T05:36:31.259Z,1006.28
2023-02-22T05:37:31.268Z,1006.27
2023-02-22T05:38:31.237Z,1006.27
2023-02-22T05:39:31.261Z,1006.25
2023-02-22T05:40:31.220Z,1006.24
2023-02-22T05:41:31.251Z,1006.23
2023-02-22T05:42:31.196Z,1006.21
2023-02-22T05:43:31.213Z,1006.19
2023-02-22T05:44:31.176Z,1006.18
2023-02-22T05:45:31.190Z,1006.16
2023-02-22T05:46:31.242Z,1006.15
2023-02-22T05:47:31.184Z,1006.14
2023-02-22T05:48:31.135Z,1006.13
2023-02-22T05:49:31.161Z,1006.12
2023-02-22T05:50:31.112Z,1006.12
2023-02-22T05:51:31.126Z,1006.11
2023-02-22T05:52:31.092Z,1006.11
2023-02-22T05:53:31.122Z,1006.11
2023-02-22T05:54:31.070Z,1006.11
2023-02-22T05:55:31.093Z,1006.09
2023-02-22T05:56:31.058Z,1006.08
2023-02-22T05:57:31.063Z,1006.09
2023-02-22T05:58:31.029Z,1006.08
2023-02-22T05:59:31.054Z,1006.07
2023-02-22T06:00:31.012Z,1006.05
2023-02-22T06:01:31.030Z,1006.05
2023-02-22T06:02:30.987Z,1006.05
2023-02-22T06:03:31.009Z,1006.04
2023-02-22T06:04:30.964Z,1006.03
2023-02-22T06:05:31.107Z,1006.03
2023-02-22T06:06:30.948Z,1006.03
2023-02-22T06:07:30.952Z,1006.03
2023-02-22T06:08:30.927Z,1006.02
2023-02-22T06:09:30.937Z,1006.02
2023-02-22T06:10:30.902Z,1006.02
2023-02-22T06:11:30.939Z,1006.01
2023-02-22T06:12:30.894Z,1006.01
2023-02-22T06:13:30.896Z,1006.00
2023-02-22T06:14:30.861Z,1006.02
2023-02-22T06:15:30.881Z,1006.00
2023-02-22T06:16:30.893Z,1006.01
2023-02-22T06:17:30.893Z,1006.01
2023-02-22T06:18:30.820Z,1006.02
2023-02-22T06:19:30.835Z,1006.02
2023-02-22T06:20:30.802Z,1006.02
2023-02-22T06:21:30.810Z,1006.04
2023-02-22T06:22:30.788Z,1006.05
2023-02-22T06:23:30.820Z,1006.06
2023-02-22T06:24:30.757Z,1006.05
2023-02-22T06:25:30.773Z,1006.07
2023-02-22T06:26:30.736Z,1006.07
2023-02-22T06:27:30.750Z,1006.06
2023-02-22T06:28:30.726Z,1006.08
2023-02-22T06:29:30.745Z,1006.07
2023-02-22T06:30:30.765Z,1006.07
2023-02-22T06:31:30.754Z,1006.08
2023-02-22T06:32:30.718Z,1006.09
2023-02-22T06:33:30.692Z,1006.10
2023-02-22T06:34:30.658Z,1006.11
2023-02-22T06:35:30.699Z,1006.12
2023-02-22T06:36:30.635Z,1006.13
2023-02-22T06:37:30.648Z,1006.14
2023-02-22T06:38:30.641Z,1006.16
2023-02-22T06:39:30.629Z,1006.18
2023-02-22T06:40:30.591Z,1006.18
2023-02-22T06:41:30.629Z,1006.20
2023-02-22T06:42:30.578Z,1006.20
2023-02-22T06:43:30.588Z,1006.21
2023-02-22T06:44:30.552Z,1006.21
2023-02-22T06:45:30.604Z,1006.22
2023-02-22T06:46:30.533Z,1006.24
2023-02-22T06:47:30.636Z,1006.25
2023-02-22T06:48:30.511Z,1006.25
2023-02-22T06:49:30.521Z,1006.25
2023-02-22T06:50:30.498Z,1006.25
2023-02-22T06:51:30.507Z,1006.25
2023-02-22T06:52:30.470Z,1006.25
2023-02-22T06:53:30.509Z,1006.25
2023-02-22T06:54:30.459Z,1006.25
2023-02-22T06:55:30.481Z,1006.25
2023-02-22T06:56:30.435Z,1006.26
2023-02-22T06:57:30.445Z,1006.25
2023-02-22T06:58:30.406Z,1006.25
2023-02-22T06:59:30.456Z,1006.24
2023-02-22T07:00:30.530Z,1006.24
2023-02-22T07:01:30.398Z,1006.24
2023-02-22T07:02:30.368Z,1006.25
2023-02-22T07:03:30.414Z,1006.25
2023-02-22T07:04:30.348Z,1006.26
2023-02-22T07:05:30.537Z,1006.26
2023-02-22T07:06:30.330Z,1006.26
2023-02-22T07:07:30.339Z,1006.27
2023-02-22T07:08:30.308Z,1006.28
2023-02-22T07:09:30.321Z,1006.28
2023-02-22T07:10:30.289Z,1006.28
2023-02-22T07:11:30.320Z,1006.28
2023-02-22T07:12:30.268Z,1006.28
2023-02-22T07:13:30.285Z,1006.29
2023-02-22T07:14:30.259Z,1006.29
2023-02-22T07:15:30.285Z,1006.29
2023-02-22T07:16:30.241Z,1006.28
2023-02-22T07:17:30.266Z,1006.28
2023-02-22T07:18:31.045Z,1006.28
2023-02-22T07:19:30.222Z,1006.27
2023-02-22T07:20:30.185Z,1006.28
2023-02-22T07:21:30.200Z,1006.27
2023-02-22T07:22:30.170Z,1006.28
2023-02-22T07:23:30.222Z,1006.29
2023-02-22T07:24:30.153Z,1006.29
2023-02-22T07:25:30.166Z,1006.29
2023-02-22T07:26:30.124Z,1006.27
2023-02-22T07:27:30.139Z,1006.26
2023-02-22T07:28:30.116Z,1006.27
2023-02-22T07:29:30.132Z,1006.26
2023-02-22T07:30:30.115Z,1006.27
2023-02-22T07:31:30.098Z,1006.26
2023-02-22T07:32:30.231Z,1006.25
2023-02-22T07:33:30.084Z,1006.24
2023-02-22T07:34:30.046Z,1006.24
2023-02-22T07:35:30.079Z,1006.22
2023-02-22T07:36:30.039Z,1006.22
2023-02-22T07:37:30.051Z,1006.22
2023-02-22T07:38:30.003Z,1006.20
2023-02-22T07:39:30.020Z,1006.20
2023-02-22T07:40:29.986Z,1006.20
2023-02-22T07:41:30.009Z,1006.21
2023-02-22T07:42:29.977Z,1006.20
2023-02-22T07:43:29.972Z,1006.20
2023-02-22T07:44:29.955Z,1006.20
2023-02-22T07:45:29.997Z,1006.20
2023-02-22T07:46:29.920Z,1006.21
2023-02-22T07:47:29.952Z,1006.20
2023-02-22T07:48:29.901Z,1006.19
2023-02-22T07:49:29.924Z,1006.18
2023-02-22T07:50:29.878Z,1006.18
2023-02-22T07:51:29.898Z,1006.18
2023-02-22T07:52:29.858Z,1006.17
2023-02-22T07:53:29.884Z,1006.18
2023-02-22T07:54:29.838Z,1006.18
2023-02-22T07:55:29.848Z,1006.19
2023-02-22T07:56:29.845Z,1006.18
2023-02-22T07:57:29.833Z,1006.18
2023-02-22T07:58:29.796Z,1006.18
2023-02-22T07:59:29.839Z,1006.18
2023-02-22T08:00:29.779Z,1006.18
2023-02-22T08:01:29.785Z,1006.18
2023-02-22T08:02:29.806Z,1006.18
2023-02-22T08:03:29.801Z,1006.17
2023-02-22T08:04:29.736Z,1006.16
2023-02-22T08:05:29.770Z,1006.15
2023-02-22T08:06:29.714Z,1006.15
2023-02-22T08:07:29.728Z,1006.14
2023-02-22T08:08:29.696Z,1006.13
2023-02-22T08:09:29.705Z,1006.12
2023-02-22T08:10:29.696Z,1006.10
2023-02-22T08:11:29.700Z,1006.09
2023-02-22T08:12:29.704Z,1006.08
2023-02-22T08:13:29.640Z,1006.07
2023-02-22T08:14:29.653Z,1006.06
2023-02-22T08:15:29.640Z,1006.05
2023-02-22T08:16:29.636Z,1006.03
2023-02-22T08:17:29.629Z,1006.02
2023-02-22T08:18:29.629Z,1006.01
2023-02-22T08:19:29.596Z,1005.99
2023-02-22T08:20:29.696Z,1005.98
2023-02-22T08:21:29.556Z,1005.97
2023-02-22T08:22:29.571Z,1005.97
2023-02-22T08:23:29.549Z,1005.96
2023-02-22T08:24:29.550Z,1005.95
2023-02-22T08:25:29.562Z,1005.95
2023-02-22T08:26:29.524Z,1005.94
2023-02-22T08:27:29.507Z,1005.93
2023-02-22T08:28:29.513Z,1005.91
2023-02-22T08:29:29.492Z,1005.90
2023-02-22T08:30:29.537Z,1005.89
2023-02-22T08:31:29.483Z,1005.89
2023-02-22T08:32:29.663Z,1005.89
2023-02-22T08:33:29.430Z,1005.89
2023-02-22T08:34:29.463Z,1005.89
2023-02-22T08:35:29.427Z,1005.89
2023-02-22T08:36:29.421Z,1005.88
2023-02-22T08:37:29.387Z,1005.88
2023-02-22T08:38:29.406Z,1005.86
2023-02-22T08:39:29.373Z,1005.85
2023-02-22T08:40:29.364Z,1005.84
2023-02-22T08:41:29.361Z,1005.83
2023-02-22T08:42:29.359Z,1005.82
2023-02-22T08:43:29.325Z,1005.81
2023-02-22T08:44:29.336Z,1005.80
2023-02-22T08:45:29.350Z,1005.79
2023-02-22T08:46:29.317Z,1005.78
2023-02-22T08:47:29.300Z,1005.78
2023-02-22T08:48:29.293Z,1005.77
2023-02-22T08:49:29.260Z,1005.76
2023-02-22T08:50:29.293Z,1005.76
2023-02-22T08:51:29.240Z,1005.75
2023-02-22T08:52:29.248Z,1005.73
2023-02-22T08:53:29.239Z,1005.71
2023-02-22T08:54:29.229Z,1005.70
2023-02-22T08:55:29.227Z,1005.69
2023-02-22T08:56:29.206Z,1005.69
2023-02-22T08:57:29.177Z,1005.68
2023-02-22T08:58:29.183Z,1005.66
2023-02-22T08:59:29.170Z,1005.64
2023-02-22T09:00:29.161Z,1005.63
2023-02-22T09:01:33.337Z,1005.63
2023-02-22T09:02:29.140Z,1005.63
2023-02-22T09:03:29.119Z,1005.63
2023-02-22T09:04:29.120Z,1005.63
2023-02-22T09:05:31.213Z,1005.61
2023-02-22T09:06:29.097Z,1005.61
2023-02-22T09:07:29.068Z,1005.60
2023-02-22T09:08:29.076Z,1005.61
2023-02-22T09:09:29.048Z,1005.61
2023-02-22T09:10:29.058Z,1005.60
2023-02-22T09:11:29.053Z,1005.60
2023-02-22T09:12:29.032Z,1005.59
2023-02-22T09:13:29.001Z,1005.59
2023-02-22T09:14:29.012Z,1005.57
2023-02-22T09:15:28.993Z,1005.56
2023-02-22T09:16:29.029Z,1005.56
2023-02-22T09:17:28.982Z,1005.54
2023-02-22T09:18:42.380Z,1005.53
2023-02-22T09:19:28.942Z,1005.51
2023-02-22T09:20:28.955Z,1005.50
2023-02-22T09:21:28.914Z,1005.49
2023-02-22T09:22:28.960Z,1005.47
2023-02-22T09:23:28.917Z,1005.45
2023-02-22T09:24:28.912Z,1005.43
2023-02-22T09:25:28.872Z,1005.42
2023-02-22T09:26:28.887Z,1005.40
2023-02-22T09:27:28.856Z,1005.39
2023-02-22T09:28:29.282Z,1005.39
2023-02-22T09:29:28.853Z,1005.39
2023-02-22T09:30:28.931Z,1005.38
2023-02-22T09:31:28.934Z,1005.36
2023-02-22T09:32:29.011Z,1005.37
2023-02-22T09:33:28.893Z,1005.36
2023-02-22T09:34:28.802Z,1005.35
2023-02-22T09:35:28.790Z,1005.35
2023-02-22T09:36:28.779Z,1005.35
2023-02-22T09:37:28.749Z,1005.33
2023-02-22T09:38:28.762Z,1005.32
2023-02-22T09:39:28.749Z,1005.30
2023-02-22T09:40:28.737Z,1005.30
2023-02-22T09:41:28.718Z,1005.30
2023-02-22T09:42:28.715Z,1005.30
2023-02-22T09:43:28.677Z,1005.30
2023-02-22T09:44:29.686Z,1005.28
2023-02-22T09:45:28.734Z,1005.27
2023-02-22T09:46:28.669Z,1005.26
2023-02-22T09:47:28.673Z,1005.25
2023-02-22T09:48:28.650Z,1005.24
2023-02-22T09:49:28.617Z,1005.23
2023-02-22T09:50:28.628Z,1005.22
2023-02-22T09:51:28.596Z,1005.22
2023-02-22T09:52:28.608Z,1005.21
2023-02-22T09:53:28.588Z,1005.21
2023-02-22T09:54:28.586Z,1005.20
2023-02-22T09:55:28.558Z,1005.19
2023-02-22T09:56:28.565Z,1005.19
2023-02-22T09:57:28.534Z,1005.18
2023-02-22T09:58:28.547Z,1005.18
2023-02-22T09:59:28.539Z,1005.17
2023-02-22T10:00:28.521Z,1005.17
2023-02-22T10:01:28.516Z,1005.16
2023-02-22T10:02:28.499Z,1005.16
2023-02-22T10:03:28.521Z,1005.17
2023-02-22T10:04:28.482Z,1005.17
2023-02-22T10:05:28.490Z,1005.17
2023-02-22T10:06:28.458Z,1005.16
2023-02-22T10:07:28.429Z,1005.16
2023-02-22T10:08:30.799Z,1005.15
2023-02-22T10:09:28.400Z,1005.14
2023-02-22T10:10:28.424Z,1005.13
2023-02-22T10:11:28.408Z,1005.13
2023-02-22T10:12:28.397Z,1005.12
2023-02-22T10:13:28.358Z,1005.11
2023-02-22T10:14:28.368Z,1005.09
2023-02-22T10:15:28.342Z,1005.08
2023-02-22T10:16:28.388Z,1005.07
2023-02-22T10:17:28.331Z,1005.06
2023-02-22T10:18:28.327Z,1005.04
2023-02-22T10:19:28.296Z,1005.04
2023-02-22T10:20:28.306Z,1005.03
2023-02-22T10:21:28.270Z,1005.02
2023-02-22T10:22:28.287Z,1005.02
2023-02-22T10:23:28.274Z,1005.01
2023-02-22T10:24:28.262Z,1005.00
2023-02-22T10:25:28.238Z,1004.99
2023-02-22T10:26:28.241Z,1004.97
2023-02-22T10:27:28.285Z,1004.95
2023-02-22T10:28:28.221Z,1004.95
2023-02-22T10:29:28.212Z,1004.95
2023-02-22T10:30:28.310Z,1004.95
2023-02-22T10:31:28.288Z,1004.95
2023-02-22T10:32:28.250Z,1004.94
2023-02-22T10:33:28.152Z,1004.92
2023-02-22T10:34:28.155Z,1004.92
2023-02-22T10:35:28.145Z,1004.90
2023-02-22T10:36:28.137Z,1004.89
2023-02-22T10:37:28.186Z,1004.88
2023-02-22T10:38:28.131Z,1004.87
2023-02-22T10:39:28.109Z,1004.87
2023-02-22T10:40:28.098Z,1004.87
2023-02-22T10:41:28.088Z,1004.86
2023-02-22T10:42:28.072Z,1004.86
2023-02-22T10:43:28.039Z,1004.85
2023-02-22T10:44:28.053Z,1004.84
2023-02-22T10:45:28.018Z,1004.84
2023-02-22T10:46:28.031Z,1004.82
2023-02-22T10:47:28.024Z,1004.82
2023-02-22T10:48:28.013Z,1004.80
2023-02-22T10:49:27.975Z,1004.79
2023-02-22T10:50:27.987Z,1004.78
2023-02-22T10:51:27.955Z,1004.77
2023-02-22T10:52:27.967Z,1004.79
2023-02-22T10:53:27.963Z,1004.78
2023-02-22T10:54:27.952Z,1004.78
2023-02-22T10:55:27.909Z,1004.76
2023-02-22T10:56:27.923Z,1004.75
2023-02-22T10:57:27.890Z,1004.74
2023-02-22T10:58:27.899Z,1004.74
2023-02-22T10:59:27.891Z,1004.72
2023-02-22T11:00:27.879Z,1004.70
2023-02-22T11:01:27.980Z,1004.68
2023-02-22T11:02:27.856Z,1004.67
2023-02-22T11:03:27.830Z,1004.67
2023-02-22T11:04:27.865Z,1004.66
2023-02-22T11:05:27.858Z,1004.65
2023-02-22T11:06:27.837Z,1004.65
2023-02-22T11:07:27.779Z,1004.64
2023-02-22T11:08:27.791Z,1004.64
2023-02-22T11:09:27.760Z,1004.63
2023-02-22T11:10:27.772Z,1004.62
2023-02-22T11:11:27.756Z,1004.61
2023-02-22T11:12:27.747Z,1004.60
2023-02-22T11:13:27.715Z,1004.59
2023-02-22T11:14:27.726Z,1004.58
2023-02-22T11:15:27.691Z,1004.56
2023-02-22T11:16:27.809Z,1004.56
2023-02-22T11:17:27.695Z,1004.56
2023-02-22T11:18:27.681Z,1004.57
2023-02-22T11:19:27.657Z,1004.54
2023-02-22T11:20:27.656Z,1004.55
2023-02-22T11:21:27.626Z,1004.54
2023-02-22T11:22:27.639Z,1004.51
2023-02-22T11:23:27.617Z,1004.51
2023-02-22T11:24:34.620Z,1004.50
2023-02-22T11:25:27.586Z,1004.47
2023-02-22T11:26:27.593Z,1004.46
2023-02-22T11:27:27.559Z,1004.45
2023-02-22T11:28:27.570Z,1004.45
2023-02-22T11:29:27.637Z,1004.44
2023-02-22T11:30:27.807Z,1004.43
2023-02-22T11:31:27.569Z,1004.41
2023-02-22T11:32:27.591Z,1004.40
2023-02-22T11:33:27.496Z,1004.38
2023-02-22T11:34:27.504Z,1004.37
2023-02-22T11:35:27.497Z,1004.37
2023-02-22T11:36:27.481Z,1004.36
2023-02-22T11:37:27.448Z,1004.35
2023-02-22T11:38:27.464Z,1004.34
2023-02-22T11:39:27.487Z,1004.32
2023-02-22T11:40:27.436Z,1004.31
2023-02-22T11:41:27.425Z,1004.31
2023-02-22T11:42:27.420Z,1004.31
2023-02-22T11:43:27.387Z,1004.28
2023-02-22T11:44:27.400Z,1004.28
2023-02-22T11:45:27.359Z,1004.25
2023-02-22T11:46:27.471Z,1004.25
2023-02-22T11:47:27.371Z,1004.23
2023-02-22T11:48:27.347Z,1004.22
2023-02-22T11:49:27.322Z,1004.20
2023-02-22T11:50:27.333Z,1004.18
2023-02-22T11:51:27.295Z,1004.17
2023-02-22T11:52:27.352Z,1004.16
2023-02-22T11:53:27.288Z,1004.15
2023-02-22T11:54:27.279Z,1004.13
2023-02-22T11:55:41.719Z,1004.12
2023-02-22T11:56:37.258Z,1004.11
2023-02-22T11:57:27.271Z,1004.11
2023-02-22T11:58:27.238Z,1004.10
2023-02-22T11:59:27.219Z,1004.10
2023-02-22T12:00:27.216Z,1004.10
2023-02-22T12:01:27.182Z,1004.10
2023-02-22T12:02:27.194Z,1004.09
2023-02-22T12:03:28.768Z,1004.08
2023-02-22T12:04:27.311Z,1004.06
2023-02-22T12:05:27.162Z,1004.06